createdAt,value
2018-07-21T00:01:49.558Z,18.10
2018-07-21T00:04:17.414Z,18.00
2018-07-21T00:06:45.266Z,18.00
2018-07-21T00:09:13.239Z,18.00
2018-07-21T00:11:42.139Z,18.00
2018-07-21T00:14:10.052Z,18.00
2018-07-21T00:16:37.968Z,18.00
2018-07-21T00:19:06.139Z,17.90
2018-07-21T00:21:33.937Z,17.90
2018-07-21T00:24:01.864Z,17.90
2018-07-21T00:26:35.221Z,17.90
2018-07-21T00:29:03.131Z,17.90
2018-07-21T00:31:31.493Z,17.70
2018-07-21T00:33:59.421Z,17.60
2018-07-21T00:36:27.393Z,17.50
2018-07-21T00:38:55.462Z,17.50
2018-07-21T00:43:51.298Z,17.40
2018-07-21T00:46:19.677Z,17.40
2018-07-21T00:48:47.561Z,17.40
2018-07-21T00:51:15.453Z,17.40
2018-07-21T00:53:43.327Z,17.40
2018-07-21T00:56:11.221Z,17.30
2018-07-21T00:58:39.097Z,17.30
2018-07-21T01:01:07.187Z,17.30
2018-07-21T01:03:35.040Z,17.30
2018-07-21T01:06:03.102Z,17.40
2018-07-21T01:08:30.890Z,17.40
2018-07-21T01:10:58.964Z,17.40
2018-07-21T01:13:26.847Z,17.40
2018-07-21T01:15:54.909Z,17.40
2018-07-21T01:21:20.788Z,17.40
2018-07-21T01:23:48.655Z,17.50
2018-07-21T01:26:16.581Z,17.60
2018-07-21T01:28:44.468Z,17.50
2018-07-21T01:31:12.514Z,17.50
2018-07-21T01:33:40.384Z,17.50
2018-07-21T01:36:08.254Z,17.40
2018-07-21T01:38:36.131Z,17.40
2018-07-21T01:43:32.102Z,17.50
2018-07-21T01:45:59.945Z,17.50
2018-07-21T01:48:27.693Z,17.40
2018-07-21T01:50:55.838Z,17.30
2018-07-21T01:53:23.742Z,17.20
2018-07-21T01:55:51.752Z,17.10
2018-07-21T01:58:19.669Z,17.10
2018-07-21T02:00:47.645Z,17.10
2018-07-21T02:03:15.494Z,17.00
2018-07-21T02:05:43.342Z,16.90
2018-07-21T02:08:11.263Z,16.90
2018-07-21T02:10:39.105Z,16.90
2018-07-21T02:13:06.858Z,16.80
2018-07-21T02:15:34.653Z,16.80
2018-07-21T02:18:02.457Z,16.80
2018-07-21T02:20:30.353Z,16.70
2018-07-21T02:22:58.268Z,16.80
2018-07-21T02:25:25.981Z,16.80
2018-07-21T02:27:53.886Z,16.80
2018-07-21T02:30:22.091Z,16.80
2018-07-21T02:32:49.936Z,16.70
2018-07-21T02:35:17.721Z,16.70
2018-07-21T02:37:45.678Z,16.70
2018-07-21T02:40:13.573Z,16.70
2018-07-21T02:42:41.353Z,16.60
2018-07-21T02:45:09.408Z,16.60
2018-07-21T02:47:37.409Z,16.60
2018-07-21T02:50:05.239Z,16.50
2018-07-21T02:52:32.959Z,16.50
2018-07-21T02:55:00.836Z,16.50
2018-07-21T02:57:28.859Z,16.50
2018-07-21T02:59:56.838Z,16.50
2018-07-21T03:02:24.816Z,16.60
2018-07-21T03:04:53.089Z,16.60
2018-07-21T03:07:21.146Z,16.60
2018-07-21T03:09:48.998Z,16.70
2018-07-21T03:12:16.816Z,16.70
2018-07-21T03:14:44.689Z,16.80
2018-07-21T03:17:12.563Z,16.80
2018-07-21T03:19:40.550Z,17.10
2018-07-21T03:22:08.419Z,17.10
2018-07-21T03:24:36.268Z,17.00
2018-07-21T03:27:04.141Z,17.00
2018-07-21T03:29:32.477Z,17.00
2018-07-21T03:32:00.306Z,17.00
2018-07-21T03:34:28.813Z,16.90
2018-07-21T03:36:56.692Z,17.10
2018-07-21T03:39:24.674Z,17.20
2018-07-21T03:41:52.867Z,17.20
2018-07-21T03:44:21.154Z,17.40
2018-07-21T03:46:48.966Z,17.30
2018-07-21T03:49:16.868Z,17.30
2018-07-21T03:51:44.850Z,17.20
2018-07-21T03:54:12.709Z,17.10
2018-07-21T03:56:40.563Z,17.00
2018-07-21T03:59:08.525Z,17.00
2018-07-21T04:01:36.461Z,17.00
2018-07-21T04:04:04.301Z,17.10
2018-07-21T04:06:32.201Z,17.20
2018-07-21T04:09:00.077Z,17.30
2018-07-21T04:11:28.585Z,17.50
2018-07-21T04:13:56.802Z,17.50
2018-07-21T04:16:24.771Z,17.40
2018-07-21T04:18:53.561Z,17.30
2018-07-21T04:21:21.819Z,17.30
2018-07-21T04:23:49.979Z,17.20
2018-07-21T04:26:17.900Z,17.20
2018-07-21T04:28:45.780Z,17.40
2018-07-21T04:31:13.677Z,17.50
2018-07-21T04:33:41.556Z,17.50
2018-07-21T04:36:09.515Z,17.60
2018-07-21T04:38:37.548Z,17.70
2018-07-21T04:41:05.630Z,17.70
2018-07-21T04:43:33.587Z,17.60
2018-07-21T04:46:01.502Z,17.60
2018-07-21T04:48:29.373Z,17.50
2018-07-21T04:50:57.260Z,17.60
2018-07-21T04:53:25.191Z,17.60
2018-07-21T04:55:53.296Z,17.60
2018-07-21T04:58:21.453Z,17.60
2018-07-21T05:03:17.092Z,17.60
2018-07-21T05:08:12.636Z,17.70
2018-07-21T05:10:40.486Z,17.80
2018-07-21T05:13:08.448Z,18.00
2018-07-21T05:15:36.462Z,18.20
2018-07-21T05:18:04.381Z,18.30
2018-07-21T05:20:32.231Z,18.30
2018-07-21T05:23:00.188Z,18.40
2018-07-21T05:25:28.092Z,18.60
2018-07-21T05:28:01.542Z,18.80
2018-07-21T05:30:30.261Z,18.90
2018-07-21T05:32:58.132Z,19.00
2018-07-21T05:35:26.089Z,19.20
2018-07-21T05:37:54.000Z,19.30
2018-07-21T05:40:22.130Z,19.40
2018-07-21T05:42:50.114Z,19.70
2018-07-21T05:45:18.158Z,20.00
2018-07-21T05:47:46.179Z,20.20
2018-07-21T05:50:14.071Z,20.40
2018-07-21T05:52:41.738Z,20.60
2018-07-21T05:55:09.638Z,20.70
2018-07-21T05:57:37.517Z,20.90
2018-07-21T06:02:34.894Z,21.10
2018-07-21T06:05:02.745Z,21.20
2018-07-21T06:07:30.649Z,21.20
2018-07-21T06:09:58.692Z,21.40
2018-07-21T06:12:26.623Z,21.40
2018-07-21T06:14:54.470Z,21.60
2018-07-21T06:17:22.333Z,21.60
2018-07-21T06:19:50.725Z,21.60
2018-07-21T06:22:18.545Z,21.50
2018-07-21T06:24:46.410Z,21.50
2018-07-21T06:27:14.330Z,21.40
2018-07-21T06:29:42.189Z,21.50
2018-07-21T06:32:10.524Z,21.50
2018-07-21T06:34:38.496Z,21.40
2018-07-21T06:37:06.472Z,21.50
2018-07-21T06:39:34.357Z,21.60
2018-07-21T06:42:02.293Z,21.70
2018-07-21T06:44:30.649Z,21.90
2018-07-21T06:46:58.428Z,21.90
2018-07-21T06:49:27.409Z,21.80
2018-07-21T06:51:55.202Z,21.80
2018-07-21T06:54:23.121Z,21.80
2018-07-21T06:56:51.086Z,21.80
2018-07-21T06:59:19.129Z,21.80
2018-07-21T07:01:47.034Z,21.60
2018-07-21T07:04:14.946Z,21.50
2018-07-21T07:06:43.015Z,21.50
2018-07-21T07:09:11.554Z,21.40
2018-07-21T07:11:39.470Z,21.40
2018-07-21T07:14:07.392Z,21.30
2018-07-21T07:16:37.370Z,21.40
2018-07-21T07:19:05.199Z,21.30
2018-07-21T07:21:33.012Z,21.20
2018-07-21T07:24:00.873Z,21.00
2018-07-21T07:26:28.788Z,21.00
2018-07-21T07:28:56.781Z,20.90
2018-07-21T07:31:24.868Z,20.80
2018-07-21T07:33:53.164Z,20.80
2018-07-21T07:36:24.557Z,20.80
2018-07-21T07:38:53.313Z,20.70
2018-07-21T07:41:22.228Z,20.60
2018-07-21T07:43:50.965Z,20.50
2018-07-21T07:46:19.739Z,20.20
2018-07-21T07:48:47.543Z,19.90
2018-07-21T07:51:15.365Z,19.80
2018-07-21T07:53:43.222Z,19.70
2018-07-21T07:56:11.171Z,19.40
2018-07-21T07:58:39.123Z,19.20
2018-07-21T08:01:07.222Z,19.10
2018-07-21T08:03:35.136Z,18.90
2018-07-21T08:06:03.031Z,18.70
2018-07-21T08:08:31.938Z,18.60
2018-07-21T08:10:59.850Z,18.50
2018-07-21T08:13:27.716Z,18.60
2018-07-21T08:15:56.070Z,18.70
2018-07-21T08:18:24.094Z,18.60
2018-07-21T08:20:52.097Z,18.60
2018-07-21T08:23:20.217Z,18.50
2018-07-21T08:25:48.129Z,18.60
2018-07-21T08:28:16.042Z,18.80
2018-07-21T08:30:43.911Z,18.80
2018-07-21T08:33:11.905Z,18.70
2018-07-21T08:35:39.832Z,18.60
2018-07-21T08:38:20.779Z,18.40
2018-07-21T08:40:49.873Z,18.40
2018-07-21T08:43:22.589Z,18.30
2018-07-21T08:45:52.652Z,18.30
2018-07-21T08:48:20.666Z,18.20
2018-07-21T08:50:48.672Z,18.20
2018-07-21T08:53:30.208Z,18.10
2018-07-21T08:55:58.275Z,18.00
2018-07-21T08:58:28.198Z,17.80
2018-07-21T09:00:56.449Z,17.80
2018-07-21T09:03:24.545Z,18.00
2018-07-21T09:05:52.728Z,18.10
2018-07-21T09:08:20.934Z,18.20
2018-07-21T09:10:48.900Z,18.20
2018-07-21T09:13:16.705Z,18.20
2018-07-21T09:15:44.728Z,18.10
2018-07-21T09:18:12.583Z,18.10
2018-07-21T09:20:40.488Z,18.10
2018-07-21T09:23:08.366Z,18.00
2018-07-21T09:25:36.268Z,17.90
2018-07-21T09:28:04.172Z,17.80
2018-07-21T09:30:32.125Z,17.90
2018-07-21T09:33:00.196Z,18.10
2018-07-21T09:35:29.665Z,18.10
2018-07-21T09:38:15.190Z,18.10
2018-07-21T09:40:43.083Z,18.00
2018-07-21T09:43:10.971Z,18.00
2018-07-21T09:45:38.823Z,17.80
2018-07-21T09:48:07.627Z,17.80
2018-07-21T09:50:35.700Z,17.80
2018-07-21T09:53:03.479Z,17.80
2018-07-21T09:55:31.317Z,17.90
2018-07-21T09:57:59.174Z,17.90
2018-07-21T10:01:04.577Z,18.00
2018-07-21T10:03:33.870Z,18.00
2018-07-21T10:06:02.152Z,18.00
2018-07-21T10:08:30.344Z,18.00
2018-07-21T10:10:58.304Z,18.00
2018-07-21T10:13:27.453Z,18.00
2018-07-21T10:15:55.452Z,18.00
2018-07-21T10:18:23.872Z,18.00
2018-07-21T10:20:53.008Z,17.90
2018-07-21T10:23:22.235Z,17.90
2018-07-21T10:25:55.866Z,18.00
2018-07-21T10:28:29.724Z,18.00
2018-07-21T10:30:57.623Z,18.00
2018-07-21T10:33:25.685Z,18.10
2018-07-21T10:35:53.655Z,18.00
2018-07-21T10:38:21.797Z,18.10
2018-07-21T10:40:51.007Z,18.10
2018-07-21T10:43:18.920Z,18.00
2018-07-21T10:45:47.320Z,18.10
2018-07-21T10:48:15.316Z,18.10
2018-07-21T10:50:43.117Z,18.10
2018-07-21T10:53:10.984Z,18.10
2018-07-21T10:55:38.755Z,18.10
2018-07-21T10:58:06.706Z,18.10
2018-07-21T11:00:55.832Z,18.20
2018-07-21T11:03:23.818Z,18.20
2018-07-21T11:05:51.733Z,18.30
2018-07-21T11:08:19.934Z,18.30
2018-07-21T11:10:47.837Z,18.40
2018-07-21T11:13:27.649Z,18.40
2018-07-21T11:15:55.525Z,18.60
2018-07-21T11:18:23.422Z,18.80
2018-07-21T11:20:51.413Z,19.00
2018-07-21T11:23:19.380Z,19.10
2018-07-21T11:25:47.311Z,19.20
2018-07-21T11:30:42.816Z,19.20
2018-07-21T11:33:16.193Z,19.20
2018-07-21T11:35:44.260Z,19.20
2018-07-21T11:38:12.216Z,19.10
2018-07-21T11:40:40.673Z,19.10
2018-07-21T11:43:09.024Z,19.10
2018-07-21T11:45:38.556Z,19.10
2018-07-21T11:48:10.683Z,19.10
2018-07-21T11:50:38.675Z,19.20
2018-07-21T11:53:06.719Z,19.20
2018-07-21T11:55:34.648Z,19.10
2018-07-21T11:58:02.683Z,19.10
2018-07-21T12:00:53.079Z,19.10
2018-07-21T12:03:21.341Z,19.20
2018-07-21T12:05:49.098Z,19.30
2018-07-21T12:08:16.893Z,19.40
2018-07-21T12:10:44.830Z,19.50
2018-07-21T12:13:12.734Z,19.70
2018-07-21T12:15:42.149Z,19.70
2018-07-21T12:18:10.157Z,19.70
2018-07-21T12:20:38.169Z,19.60
2018-07-21T12:23:06.235Z,19.50
2018-07-21T12:25:34.048Z,19.50
2018-07-21T12:28:01.766Z,19.60
2018-07-21T12:30:29.781Z,19.60
2018-07-21T12:32:57.629Z,19.60
2018-07-21T12:35:25.613Z,19.60
2018-07-21T12:37:54.017Z,19.50
2018-07-21T12:40:22.200Z,19.50
2018-07-21T12:42:53.998Z,19.50
2018-07-21T12:47:50.109Z,19.60
2018-07-21T12:50:18.021Z,19.50
2018-07-21T12:52:46.087Z,19.60
2018-07-21T12:55:14.088Z,19.60
2018-07-21T12:57:42.477Z,19.60
2018-07-21T13:00:10.350Z,19.80
2018-07-21T13:02:39.455Z,19.80
2018-07-21T13:05:21.381Z,19.90
2018-07-21T13:07:49.265Z,20.00
2018-07-21T13:10:17.142Z,20.00
2018-07-21T13:12:50.873Z,20.00
2018-07-21T13:15:18.838Z,20.10
2018-07-21T13:17:46.824Z,20.10
2018-07-21T13:20:14.621Z,20.10
2018-07-21T13:22:42.449Z,20.20
2018-07-21T13:28:03.008Z,20.40
2018-07-21T13:30:31.047Z,20.30
2018-07-21T13:32:59.098Z,20.30
2018-07-21T13:35:27.092Z,20.30
2018-07-21T13:37:55.332Z,20.40
2018-07-21T13:40:24.492Z,20.50
2018-07-21T13:42:52.585Z,20.60
2018-07-21T13:45:21.352Z,20.60
2018-07-21T13:47:49.207Z,20.80
2018-07-21T13:50:17.014Z,21.00
2018-07-21T13:52:45.068Z,21.10
2018-07-21T13:55:12.942Z,21.30
2018-07-21T13:57:40.635Z,21.40
2018-07-21T14:00:08.544Z,21.40
2018-07-21T14:02:36.425Z,21.50
2018-07-21T14:05:08.861Z,21.50
2018-07-21T14:07:36.679Z,21.60
2018-07-21T14:10:05.014Z,21.70
2018-07-21T14:15:01.681Z,21.70
2018-07-21T14:17:29.767Z,21.80
2018-07-21T14:19:57.708Z,21.80
2018-07-21T14:22:25.710Z,21.80
2018-07-21T14:24:55.743Z,21.90
2018-07-21T14:27:23.593Z,21.90
2018-07-21T14:29:51.588Z,21.80
2018-07-21T14:32:19.394Z,21.70
2018-07-21T14:34:47.205Z,21.60
2018-07-21T14:37:15.098Z,21.50
2018-07-21T14:39:43.105Z,21.40
2018-07-21T14:42:11.031Z,21.40
2018-07-21T14:44:38.968Z,21.30
2018-07-21T14:47:10.488Z,21.40
2018-07-21T14:49:38.302Z,21.60
2018-07-21T14:52:06.258Z,21.60
2018-07-21T14:54:34.169Z,21.60
2018-07-21T14:57:02.475Z,21.60
2018-07-21T14:59:30.420Z,21.60
2018-07-21T15:01:58.318Z,21.70
2018-07-21T15:04:26.287Z,21.80
2018-07-21T15:06:54.416Z,21.90
2018-07-21T15:09:22.360Z,21.90
2018-07-21T15:11:50.370Z,21.80
2018-07-21T15:14:18.334Z,21.90
2018-07-21T15:16:46.236Z,21.80
2018-07-21T15:19:14.060Z,21.80
2018-07-21T15:21:42.018Z,21.90
2018-07-21T15:24:09.931Z,21.90
2018-07-21T15:26:37.769Z,22.00
2018-07-21T15:29:05.750Z,22.00
2018-07-21T15:31:33.768Z,22.00
2018-07-21T15:34:01.929Z,21.90
2018-07-21T15:36:36.375Z,21.90
2018-07-21T15:39:06.903Z,21.90
2018-07-21T15:41:34.936Z,21.90
2018-07-21T15:44:02.874Z,22.10
2018-07-21T15:46:30.894Z,22.10
2018-07-21T15:48:59.095Z,22.20
2018-07-21T15:51:27.205Z,22.20
2018-07-21T15:53:55.298Z,22.30
2018-07-21T15:56:23.242Z,22.30
2018-07-21T15:58:53.275Z,22.20
2018-07-21T16:01:21.337Z,22.20
2018-07-21T16:03:49.673Z,22.10
2018-07-21T16:06:17.583Z,22.10
2018-07-21T16:08:45.611Z,22.00
2018-07-21T16:11:13.380Z,21.80
2018-07-21T16:13:41.397Z,21.70
2018-07-21T16:16:09.289Z,21.50
2018-07-21T16:18:37.129Z,21.40
2018-07-21T16:21:05.238Z,21.30
2018-07-21T16:23:33.094Z,21.20
2018-07-21T16:26:01.093Z,21.10
2018-07-21T16:28:31.038Z,21.00
2018-07-21T16:31:04.533Z,21.00
2018-07-21T16:33:32.407Z,21.00
2018-07-21T16:36:00.429Z,21.10
2018-07-21T16:38:28.534Z,21.20
2018-07-21T16:40:59.878Z,21.20
2018-07-21T16:43:27.643Z,21.20
2018-07-21T16:45:55.843Z,21.10
2018-07-21T16:48:24.510Z,21.20
2018-07-21T16:50:58.050Z,21.20
2018-07-21T16:53:25.918Z,21.20
2018-07-21T16:55:55.156Z,21.30
2018-07-21T16:58:24.132Z,21.30
2018-07-21T17:00:53.611Z,21.40
2018-07-21T17:03:22.573Z,21.50
2018-07-21T17:05:50.707Z,21.50
2018-07-21T17:08:18.712Z,21.50
2018-07-21T17:10:47.518Z,21.50
2018-07-21T17:13:15.488Z,21.70
2018-07-21T17:15:43.309Z,21.70
2018-07-21T17:18:17.416Z,21.70
2018-07-21T17:20:45.366Z,21.60
2018-07-21T17:23:13.266Z,21.40
2018-07-21T17:25:44.322Z,21.30
2018-07-21T17:28:12.226Z,21.10
2018-07-21T17:30:40.441Z,21.00
2018-07-21T17:33:08.470Z,21.00
2018-07-21T17:35:36.318Z,20.90
2018-07-21T17:38:04.394Z,20.90
2018-07-21T17:40:32.198Z,20.80
2018-07-21T17:43:03.660Z,20.70
2018-07-21T17:45:31.623Z,20.70
2018-07-21T17:47:59.654Z,20.70
2018-07-21T17:50:27.580Z,20.70
2018-07-21T17:52:55.826Z,20.70
2018-07-21T17:55:27.657Z,20.70
2018-07-21T17:57:56.230Z,20.70
2018-07-21T18:00:25.985Z,20.60
2018-07-21T18:02:55.046Z,20.50
2018-07-21T18:05:23.674Z,20.50
2018-07-21T18:07:52.324Z,20.40
2018-07-21T18:10:20.814Z,20.40
2018-07-21T18:12:49.021Z,20.40
2018-07-21T18:15:17.098Z,20.40
2018-07-21T18:17:44.942Z,20.40
2018-07-21T18:20:16.275Z,20.40
2018-07-21T18:22:44.188Z,20.40
2018-07-21T18:25:12.183Z,20.50
2018-07-21T18:27:40.917Z,20.50
2018-07-21T18:30:08.998Z,20.40
2018-07-21T18:32:41.217Z,20.40
2018-07-21T18:35:09.110Z,20.40
2018-07-21T18:37:37.135Z,20.30
2018-07-21T18:40:05.053Z,20.30
2018-07-21T18:42:33.346Z,20.20
2018-07-21T18:45:01.351Z,20.10
2018-07-21T18:47:29.826Z,20.10
2018-07-21T18:49:57.811Z,20.10
2018-07-21T18:52:26.161Z,20.10
2018-07-21T18:54:54.594Z,20.10
2018-07-21T18:57:24.053Z,20.00
2018-07-21T18:59:52.658Z,20.00
2018-07-21T19:02:21.291Z,20.00
2018-07-21T19:04:49.339Z,19.90
2018-07-21T19:07:17.272Z,19.90
2018-07-21T19:09:45.085Z,19.90
2018-07-21T19:12:18.455Z,19.80
2018-07-21T19:14:46.445Z,19.80
2018-07-21T19:17:14.181Z,19.80
2018-07-21T19:19:47.707Z,19.80
2018-07-21T19:22:15.601Z,19.70
2018-07-21T19:24:47.364Z,19.70
2018-07-21T19:27:20.755Z,19.70
2018-07-21T19:29:48.603Z,19.70
2018-07-21T19:32:21.944Z,19.60
2018-07-21T19:34:49.924Z,19.60
2018-07-21T19:37:23.319Z,19.60
2018-07-21T19:39:51.238Z,19.50
2018-07-21T19:42:19.025Z,19.50
2018-07-21T19:44:47.118Z,19.60
2018-07-21T19:47:15.013Z,19.60
2018-07-21T19:49:42.924Z,19.60
2018-07-21T19:52:10.803Z,19.60
2018-07-21T19:54:38.652Z,19.50
2018-07-21T19:57:06.689Z,19.50
2018-07-21T19:59:34.660Z,19.50
2018-07-21T20:02:13.696Z,19.50
2018-07-21T20:04:41.654Z,19.50
2018-07-21T20:07:09.537Z,19.40
2018-07-21T20:09:37.411Z,19.40
2018-07-21T20:12:05.465Z,19.40
2018-07-21T20:14:33.721Z,19.40
2018-07-21T20:17:01.597Z,19.30
2018-07-21T20:19:29.570Z,19.30
2018-07-21T20:21:57.581Z,19.30
2018-07-21T20:24:25.763Z,19.30
2018-07-21T20:26:53.966Z,19.20
2018-07-21T20:29:21.889Z,19.20
2018-07-21T20:31:49.830Z,19.30
2018-07-21T20:34:17.733Z,19.30
2018-07-21T20:39:13.391Z,19.30
2018-07-21T20:41:41.440Z,19.30
2018-07-21T20:44:09.318Z,19.30
2018-07-21T20:46:37.281Z,19.30
2018-07-21T20:49:10.770Z,19.30
2018-07-21T20:51:38.838Z,19.30
2018-07-21T20:54:06.671Z,19.30
2018-07-21T20:56:34.490Z,19.30
2018-07-21T20:59:02.502Z,19.30
2018-07-21T21:01:31.220Z,19.20
2018-07-21T21:03:59.070Z,19.10
2018-07-21T21:06:26.992Z,19.10
2018-07-21T21:08:55.086Z,19.10
2018-07-21T21:11:22.984Z,19.00
2018-07-21T21:13:50.959Z,19.00
2018-07-21T21:16:18.844Z,18.90
2018-07-21T21:18:51.362Z,19.00
2018-07-21T21:21:20.327Z,19.00
2018-07-21T21:23:48.193Z,18.90
2018-07-21T21:26:16.266Z,18.90
2018-07-21T21:28:44.122Z,18.80
2018-07-21T21:31:12.031Z,18.80
2018-07-21T21:33:39.863Z,18.90
2018-07-21T21:36:07.730Z,18.90
2018-07-21T21:38:35.562Z,18.80
2018-07-21T21:41:03.385Z,18.80
2018-07-21T21:43:31.245Z,18.70
2018-07-21T21:45:59.126Z,18.70
2018-07-21T21:48:26.990Z,18.70
2018-07-21T21:50:54.787Z,18.70
2018-07-21T21:53:22.710Z,18.70
2018-07-21T21:55:51.049Z,18.70
2018-07-21T21:58:18.836Z,18.70
2018-07-21T22:01:10.527Z,18.60
2018-07-21T22:03:38.514Z,18.60
2018-07-21T22:06:06.315Z,18.60
2018-07-21T22:08:34.371Z,18.70
2018-07-21T22:11:04.722Z,18.70
2018-07-21T22:13:32.662Z,18.60
2018-07-21T22:16:00.878Z,18.60
2018-07-21T22:18:29.852Z,18.60
2018-07-21T22:20:57.885Z,18.60
2018-07-21T22:23:25.977Z,18.60
2018-07-21T22:25:54.002Z,18.60
2018-07-21T22:28:21.842Z,18.70
2018-07-21T22:30:50.050Z,18.60
2018-07-21T22:35:45.557Z,18.60
2018-07-21T22:38:13.532Z,18.60
2018-07-21T22:40:41.679Z,18.60
2018-07-21T22:45:37.135Z,18.60
2018-07-21T22:48:05.231Z,18.60
2018-07-21T22:50:33.064Z,18.60
2018-07-21T22:53:00.968Z,18.60
2018-07-21T22:55:28.740Z,18.50
2018-07-21T22:57:56.659Z,18.50
2018-07-21T23:00:24.666Z,18.40
2018-07-21T23:02:52.767Z,18.40
2018-07-21T23:05:20.669Z,18.40
2018-07-21T23:07:48.481Z,18.40
2018-07-21T23:10:19.320Z,18.50
2018-07-21T23:15:31.575Z,18.50
2018-07-21T23:17:59.440Z,18.50
2018-07-21T23:20:27.589Z,18.40
2018-07-21T23:22:57.509Z,18.40
2018-07-21T23:25:25.382Z,18.40
2018-07-21T23:27:53.282Z,18.30
2018-07-21T23:30:21.316Z,18.30
2018-07-21T23:32:49.236Z,18.30
2018-07-21T23:35:17.080Z,18.30
2018-07-21T23:37:44.909Z,18.30
2018-07-21T23:40:12.792Z,18.30
2018-07-21T23:42:40.597Z,18.20
2018-07-21T23:45:08.468Z,18.20
2018-07-21T23:47:36.310Z,18.20
2018-07-21T23:50:04.320Z,18.30
2018-07-21T23:52:32.310Z,18.50
2018-07-21T23:55:00.134Z,18.70
2018-07-21T23:57:28.038Z,18.70
2018-07-21T23:59:55.946Z,18.70
